sensor_id;sensor_type;location;lat;lon;timestamp;P1;durP1;ratioP1;P2;durP2;ratioP2
29574;SDS011;16507;51.046;6.406;2022-09-03T00:02:30;1.52;;;0.90;;
29574;SDS011;16507;51.046;6.406;2022-09-03T00:05:05;5.65;;;1.13;;
29574;SDS011;16507;51.046;6.406;2022-09-03T00:10:27;7.70;;;1.00;;
29574;SDS011;16507;51.046;6.406;2022-09-03T00:13:23;9.18;;;1.15;;
29574;SDS011;16507;51.046;6.406;2022-09-03T00:16:02;8.60;;;1.60;;
29574;SDS011;16507;51.046;6.406;2022-09-03T00:18:36;5.40;;;1.10;;
29574;SDS011;16507;51.046;6.406;2022-09-03T00:21:14;0.82;;;0.75;;
29574;SDS011;16507;51.046;6.406;2022-09-03T00:23:43;6.50;;;1.20;;
29574;SDS011;16507;51.046;6.406;2022-09-03T00:28:39;3.47;;;1.00;;
29574;SDS011;16507;51.046;6.406;2022-09-03T00:31:19;1.42;;;0.95;;
29574;SDS011;16507;51.046;6.406;2022-09-03T00:33:51;0.70;;;0.70;;
29574;SDS011;16507;51.046;6.406;2022-09-03T00:36:31;1.80;;;0.63;;
29574;SDS011;16507;51.046;6.406;2022-09-03T00:39:06;3.03;;;1.05;;
29574;SDS011;16507;51.046;6.406;2022-09-03T00:47:44;2.33;;;1.10;;
29574;SDS011;16507;51.046;6.406;2022-09-03T00:50:37;1.55;;;0.70;;
29574;SDS011;16507;51.046;6.406;2022-09-03T00:58:46;5.90;;;0.80;;
29574;SDS011;16507;51.046;6.406;2022-09-03T01:10:39;1.13;;;0.90;;
29574;SDS011;16507;51.046;6.406;2022-09-03T01:15:26;5.57;;;0.98;;
29574;SDS011;16507;51.046;6.406;2022-09-03T01:29:30;7.22;;;0.90;;
29574;SDS011;16507;51.046;6.406;2022-09-03T01:37:35;1.25;;;0.70;;
29574;SDS011;16507;51.046;6.406;2022-09-03T01:41:03;4.85;;;0.82;;
29574;SDS011;16507;51.046;6.406;2022-09-03T01:46:01;0.60;;;0.60;;
29574;SDS011;16507;51.046;6.406;2022-09-03T01:56:42;3.72;;;0.80;;
29574;SDS011;16507;51.046;6.406;2022-09-03T02:05:01;3.17;;;0.93;;
29574;SDS011;16507;51.046;6.406;2022-09-03T02:07:40;0.90;;;0.77;;
29574;SDS011;16507;51.046;6.406;2022-09-03T02:10:11;2.92;;;0.93;;
29574;SDS011;16507;51.046;6.406;2022-09-03T02:12:40;2.65;;;0.80;;
29574;SDS011;16507;51.046;6.406;2022-09-03T02:15:11;0.98;;;0.90;;
29574;SDS011;16507;51.046;6.406;2022-09-03T02:17:40;4.45;;;0.90;;
29574;SDS011;16507;51.046;6.406;2022-09-03T02:20:09;9.57;;;1.10;;
29574;SDS011;16507;51.046;6.406;2022-09-03T02:22:39;2.10;;;0.50;;
29574;SDS011;16507;51.046;6.406;2022-09-03T02:25:07;1.73;;;0.90;;
29574;SDS011;16507;51.046;6.406;2022-09-03T02:27:35;8.57;;;0.95;;
29574;SDS011;16507;51.046;6.406;2022-09-03T02:30:02;0.57;;;0.55;;
29574;SDS011;16507;51.046;6.406;2022-09-03T02:32:28;1.23;;;0.88;;
29574;SDS011;16507;51.046;6.406;2022-09-03T02:34:54;2.08;;;0.70;;
29574;SDS011;16507;51.046;6.406;2022-09-03T02:37:19;2.40;;;0.70;;
29574;SDS011;16507;51.046;6.406;2022-09-03T02:39:46;1.52;;;0.68;;
29574;SDS011;16507;51.046;6.406;2022-09-03T02:42:12;0.50;;;0.50;;
29574;SDS011;16507;51.046;6.406;2022-09-03T02:44:43;2.17;;;0.80;;
29574;SDS011;16507;51.046;6.406;2022-09-03T02:47:14;2.53;;;0.80;;
29574;SDS011;16507;51.046;6.406;2022-09-03T02:49:39;4.50;;;0.73;;
29574;SDS011;16507;51.046;6.406;2022-09-03T02:52:06;1.13;;;0.65;;
29574;SDS011;16507;51.046;6.406;2022-09-03T02:54:34;2.38;;;0.70;;
29574;SDS011;16507;51.046;6.406;2022-09-03T02:57:04;2.63;;;0.73;;
29574;SDS011;16507;51.046;6.406;2022-09-03T02:59:34;2.05;;;0.77;;
29574;SDS011;16507;51.046;6.406;2022-09-03T03:02:00;5.40;;;0.82;;
29574;SDS011;16507;51.046;6.406;2022-09-03T03:04:27;2.15;;;1.17;;
29574;SDS011;16507;51.046;6.406;2022-09-03T03:06:53;0.75;;;0.70;;
29574;SDS011;16507;51.046;6.406;2022-09-03T03:09:19;1.25;;;0.80;;
29574;SDS011;16507;51.046;6.406;2022-09-03T03:11:45;2.47;;;0.80;;
29574;SDS011;16507;51.046;6.406;2022-09-03T03:14:10;6.13;;;0.88;;
29574;SDS011;16507;51.046;6.406;2022-09-03T03:16:36;3.28;;;0.90;;
29574;SDS011;16507;51.046;6.406;2022-09-03T03:19:02;2.80;;;0.90;;
29574;SDS011;16507;51.046;6.406;2022-09-03T03:21:27;3.65;;;1.08;;
29574;SDS011;16507;51.046;6.406;2022-09-03T03:23:53;1.60;;;0.90;;
29574;SDS011;16507;51.046;6.406;2022-09-03T03:26:19;3.30;;;0.90;;
29574;SDS011;16507;51.046;6.406;2022-09-03T03:28:48;3.05;;;0.98;;
29574;SDS011;16507;51.046;6.406;2022-09-03T03:31:16;1.73;;;1.10;;
29574;SDS011;16507;51.046;6.406;2022-09-03T03:33:44;4.10;;;1.10;;
29574;SDS011;16507;51.046;6.406;2022-09-03T03:36:14;1.80;;;1.10;;
29574;SDS011;16507;51.046;6.406;2022-09-03T03:38:41;2.95;;;1.20;;
29574;SDS011;16507;51.046;6.406;2022-09-03T03:41:12;3.80;;;1.20;;
29574;SDS011;16507;51.046;6.406;2022-09-03T03:43:42;5.25;;;1.00;;
29574;SDS011;16507;51.046;6.406;2022-09-03T03:46:08;1.67;;;0.95;;
29574;SDS011;16507;51.046;6.406;2022-09-03T03:48:37;1.50;;;0.93;;
29574;SDS011;16507;51.046;6.406;2022-09-03T03:51:03;3.05;;;0.90;;
29574;SDS011;16507;51.046;6.406;2022-09-03T03:53:31;3.92;;;1.30;;
29574;SDS011;16507;51.046;6.406;2022-09-03T03:55:59;35.72;;;2.08;;
29574;SDS011;16507;51.046;6.406;2022-09-03T03:58:27;4.35;;;1.30;;
29574;SDS011;16507;51.046;6.406;2022-09-03T04:00:55;1.83;;;1.08;;
29574;SDS011;16507;51.046;6.406;2022-09-03T04:05:53;1.40;;;0.90;;
29574;SDS011;16507;51.046;6.406;2022-09-03T04:08:20;4.18;;;1.20;;
29574;SDS011;16507;51.046;6.406;2022-09-03T04:10:46;3.67;;;0.95;;
29574;SDS011;16507;51.046;6.406;2022-09-03T04:13:12;1.05;;;0.80;;
29574;SDS011;16507;51.046;6.406;2022-09-03T04:15:38;5.10;;;0.80;;
29574;SDS011;16507;51.046;6.406;2022-09-03T04:18:04;3.63;;;0.90;;
29574;SDS011;16507;51.046;6.406;2022-09-03T04:20:30;2.58;;;0.70;;
29574;SDS011;16507;51.046;6.406;2022-09-03T04:22:59;1.90;;;0.70;;
29574;SDS011;16507;51.046;6.406;2022-09-03T04:25:25;4.68;;;0.80;;
29574;SDS011;16507;51.046;6.406;2022-09-03T04:27:51;6.22;;;1.10;;
29574;SDS011;16507;51.046;6.406;2022-09-03T04:30:17;15.55;;;1.60;;
29574;SDS011;16507;51.046;6.406;2022-09-03T04:32:43;38.08;;;2.25;;
29574;SDS011;16507;51.046;6.406;2022-09-03T04:35:21;1.50;;;1.00;;
29574;SDS011;16507;51.046;6.406;2022-09-03T04:37:49;3.35;;;1.15;;
29574;SDS011;16507;51.046;6.406;2022-09-03T04:40:15;7.90;;;1.17;;
29574;SDS011;16507;51.046;6.406;2022-09-03T04:42:41;5.20;;;1.00;;
29574;SDS011;16507;51.046;6.406;2022-09-03T04:45:07;1.02;;;0.82;;
29574;SDS011;16507;51.046;6.406;2022-09-03T04:47:33;9.20;;;1.40;;
29574;SDS011;16507;51.046;6.406;2022-09-03T04:50:01;4.18;;;1.15;;
29574;SDS011;16507;51.046;6.406;2022-09-03T04:52:28;5.43;;;1.35;;
29574;SDS011;16507;51.046;6.406;2022-09-03T04:54:55;3.65;;;1.02;;
29574;SDS011;16507;51.046;6.406;2022-09-03T04:57:21;4.55;;;0.90;;
29574;SDS011;16507;51.046;6.406;2022-09-03T04:59:47;1.42;;;0.88;;
29574;SDS011;16507;51.046;6.406;2022-09-03T05:02:13;1.20;;;0.80;;
29574;SDS011;16507;51.046;6.406;2022-09-03T05:04:39;6.35;;;1.30;;
29574;SDS011;16507;51.046;6.406;2022-09-03T05:07:05;0.93;;;0.70;;
29574;SDS011;16507;51.046;6.406;2022-09-03T05:09:31;3.22;;;1.38;;
29574;SDS011;16507;51.046;6.406;2022-09-03T05:11:57;4.53;;;0.90;;
29574;SDS011;16507;51.046;6.406;2022-09-03T05:14:22;5.88;;;0.70;;
29574;SDS011;16507;51.046;6.406;2022-09-03T05:16:48;6.20;;;1.10;;
29574;SDS011;16507;51.046;6.406;2022-09-03T05:19:14;4.32;;;1.55;;
29574;SDS011;16507;51.046;6.406;2022-09-03T05:21:40;3.45;;;1.00;;
29574;SDS011;16507;51.046;6.406;2022-09-03T05:24:07;6.35;;;0.98;;
29574;SDS011;16507;51.046;6.406;2022-09-03T05:26:36;1.65;;;1.30;;
29574;SDS011;16507;51.046;6.406;2022-09-03T05:29:03;6.13;;;1.52;;
29574;SDS011;16507;51.046;6.406;2022-09-03T05:31:33;6.80;;;1.13;;
29574;SDS011;16507;51.046;6.406;2022-09-03T05:34:03;13.40;;;1.25;;
29574;SDS011;16507;51.046;6.406;2022-09-03T05:36:30;7.72;;;1.05;;
29574;SDS011;16507;51.046;6.406;2022-09-03T05:38:58;2.60;;;1.13;;
29574;SDS011;16507;51.046;6.406;2022-09-03T05:41:24;4.38;;;0.98;;
29574;SDS011;16507;51.046;6.406;2022-09-03T05:43:52;8.73;;;1.10;;
29574;SDS011;16507;51.046;6.406;2022-09-03T05:46:20;3.92;;;1.10;;
29574;SDS011;16507;51.046;6.406;2022-09-03T05:48:51;5.35;;;0.90;;
29574;SDS011;16507;51.046;6.406;2022-09-03T05:51:17;3.03;;;0.93;;
29574;SDS011;16507;51.046;6.406;2022-09-03T05:53:44;4.97;;;1.30;;
29574;SDS011;16507;51.046;6.406;2022-09-03T05:56:12;6.75;;;1.40;;
29574;SDS011;16507;51.046;6.406;2022-09-03T05:58:42;1.90;;;1.10;;
29574;SDS011;16507;51.046;6.406;2022-09-03T06:01:22;1.77;;;0.90;;
29574;SDS011;16507;51.046;6.406;2022-09-03T06:04:07;7.28;;;1.15;;
29574;SDS011;16507;51.046;6.406;2022-09-03T06:06:36;1.48;;;0.80;;
29574;SDS011;16507;51.046;6.406;2022-09-03T06:09:04;16.02;;;1.38;;
29574;SDS011;16507;51.046;6.406;2022-09-03T06:11:35;20.90;;;2.08;;
29574;SDS011;16507;51.046;6.406;2022-09-03T06:14:03;7.07;;;1.30;;
29574;SDS011;16507;51.046;6.406;2022-09-03T06:16:32;4.35;;;0.65;;
29574;SDS011;16507;51.046;6.406;2022-09-03T06:19:00;1.58;;;0.95;;
29574;SDS011;16507;51.046;6.406;2022-09-03T06:21:27;6.28;;;0.80;;
29574;SDS011;16507;51.046;6.406;2022-09-03T06:23:53;1.42;;;0.93;;
29574;SDS011;16507;51.046;6.406;2022-09-03T06:26:23;7.78;;;0.90;;
29574;SDS011;16507;51.046;6.406;2022-09-03T06:28:49;3.20;;;0.98;;
29574;SDS011;16507;51.046;6.406;2022-09-03T06:31:19;0.40;;;0.40;;
29574;SDS011;16507;51.046;6.406;2022-09-03T06:33:45;2.30;;;0.60;;
29574;SDS011;16507;51.046;6.406;2022-09-03T06:36:12;2.45;;;0.50;;
29574;SDS011;16507;51.046;6.406;2022-09-03T06:38:40;1.55;;;0.70;;
29574;SDS011;16507;51.046;6.406;2022-09-03T06:41:07;2.38;;;0.73;;
29574;SDS011;16507;51.046;6.406;2022-09-03T06:43:35;1.10;;;0.50;;
29574;SDS011;16507;51.046;6.406;2022-09-03T06:46:04;0.98;;;0.63;;
29574;SDS011;16507;51.046;6.406;2022-09-03T06:48:40;8.65;;;1.17;;
29574;SDS011;16507;51.046;6.406;2022-09-03T06:51:10;1.58;;;0.60;;
29574;SDS011;16507;51.046;6.406;2022-09-03T06:53:38;1.17;;;0.70;;
29574;SDS011;16507;51.046;6.406;2022-09-03T06:56:10;2.92;;;0.70;;
29574;SDS011;16507;51.046;6.406;2022-09-03T06:58:41;2.92;;;0.77;;
29574;SDS011;16507;51.046;6.406;2022-09-03T07:01:12;10.57;;;0.82;;
29574;SDS011;16507;51.046;6.406;2022-09-03T07:03:40;6.40;;;1.13;;
29574;SDS011;16507;51.046;6.406;2022-09-03T07:06:11;5.80;;;0.60;;
29574;SDS011;16507;51.046;6.406;2022-09-03T07:08:38;1.50;;;0.90;;
29574;SDS011;16507;51.046;6.406;2022-09-03T07:11:06;2.40;;;0.77;;
29574;SDS011;16507;51.046;6.406;2022-09-03T07:13:34;5.60;;;1.20;;
29574;SDS011;16507;51.046;6.406;2022-09-03T07:16:04;3.58;;;0.75;;
29574;SDS011;16507;51.046;6.406;2022-09-03T07:18:32;0.77;;;0.73;;
29574;SDS011;16507;51.046;6.406;2022-09-03T07:20:58;2.42;;;1.25;;
29574;SDS011;16507;51.046;6.406;2022-09-03T07:23:29;1.90;;;0.85;;
29574;SDS011;16507;51.046;6.406;2022-09-03T07:25:55;4.57;;;0.98;;
29574;SDS011;16507;51.046;6.406;2022-09-03T07:28:24;3.28;;;0.80;;
29574;SDS011;16507;51.046;6.406;2022-09-03T07:30:50;4.90;;;0.70;;
29574;SDS011;16507;51.046;6.406;2022-09-03T07:33:17;3.05;;;0.70;;
29574;SDS011;16507;51.046;6.406;2022-09-03T07:35:43;3.40;;;0.63;;
29574;SDS011;16507;51.046;6.406;2022-09-03T07:38:09;3.13;;;0.85;;
29574;SDS011;16507;51.046;6.406;2022-09-03T07:40:35;7.10;;;0.80;;
29574;SDS011;16507;51.046;6.406;2022-09-03T07:43:03;4.95;;;0.80;;
29574;SDS011;16507;51.046;6.406;2022-09-03T07:45:29;11.55;;;0.80;;
29574;SDS011;16507;51.046;6.406;2022-09-03T07:47:57;2.35;;;0.82;;
29574;SDS011;16507;51.046;6.406;2022-09-03T07:50:23;4.88;;;0.73;;
29574;SDS011;16507;51.046;6.406;2022-09-03T07:52:48;3.60;;;0.90;;
29574;SDS011;16507;51.046;6.406;2022-09-03T07:55:19;2.13;;;0.70;;
29574;SDS011;16507;51.046;6.406;2022-09-03T07:57:45;10.25;;;1.13;;
29574;SDS011;16507;51.046;6.406;2022-09-03T08:00:11;1.23;;;0.60;;
29574;SDS011;16507;51.046;6.406;2022-09-03T08:02:37;5.97;;;0.70;;
29574;SDS011;16507;51.046;6.406;2022-09-03T08:05:03;3.67;;;1.00;;
29574;SDS011;16507;51.046;6.406;2022-09-03T08:07:29;3.80;;;0.73;;
29574;SDS011;16507;51.046;6.406;2022-09-03T08:09:55;7.50;;;0.90;;
29574;SDS011;16507;51.046;6.406;2022-09-03T08:12:21;12.25;;;1.10;;
29574;SDS011;16507;51.046;6.406;2022-09-03T08:14:47;5.30;;;0.70;;
29574;SDS011;16507;51.046;6.406;2022-09-03T08:17:13;1.15;;;0.63;;
29574;SDS011;16507;51.046;6.406;2022-09-03T08:19:39;0.63;;;0.50;;
29574;SDS011;16507;51.046;6.406;2022-09-03T08:22:06;2.33;;;0.60;;
29574;SDS011;16507;51.046;6.406;2022-09-03T08:24:32;3.70;;;0.70;;
29574;SDS011;16507;51.046;6.406;2022-09-03T08:26:59;3.72;;;0.70;;
29574;SDS011;16507;51.046;6.406;2022-09-03T08:29:25;3.65;;;0.70;;
29574;SDS011;16507;51.046;6.406;2022-09-03T08:31:51;1.08;;;0.50;;
29574;SDS011;16507;51.046;6.406;2022-09-03T08:34:17;3.25;;;0.60;;
29574;SDS011;16507;51.046;6.406;2022-09-03T08:36:43;2.60;;;0.60;;
29574;SDS011;16507;51.046;6.406;2022-09-03T08:39:11;1.27;;;0.40;;
29574;SDS011;16507;51.046;6.406;2022-09-03T08:44:27;2.38;;;0.65;;
29574;SDS011;16507;51.046;6.406;2022-09-03T08:47:10;2.10;;;0.80;;
29574;SDS011;16507;51.046;6.406;2022-09-03T08:52:20;1.13;;;0.60;;
29574;SDS011;16507;51.046;6.406;2022-09-03T08:55:03;4.68;;;0.65;;
29574;SDS011;16507;51.046;6.406;2022-09-03T08:57:45;4.65;;;1.25;;
29574;SDS011;16507;51.046;6.406;2022-09-03T09:00:12;6.63;;;0.80;;
29574;SDS011;16507;51.046;6.406;2022-09-03T09:05:55;3.63;;;0.50;;
29574;SDS011;16507;51.046;6.406;2022-09-03T09:08:33;2.58;;;0.73;;
29574;SDS011;16507;51.046;6.406;2022-09-03T09:22:09;6.35;;;0.82;;
29574;SDS011;16507;51.046;6.406;2022-09-03T09:24:46;1.67;;;0.60;;
29574;SDS011;16507;51.046;6.406;2022-09-03T09:27:14;2.47;;;0.75;;
29574;SDS011;16507;51.046;6.406;2022-09-03T09:29:47;3.95;;;0.88;;
29574;SDS011;16507;51.046;6.406;2022-09-03T09:32:15;3.28;;;0.90;;
29574;SDS011;16507;51.046;6.406;2022-09-03T09:34:43;8.50;;;1.30;;
29574;SDS011;16507;51.046;6.406;2022-09-03T09:37:10;7.03;;;1.00;;
29574;SDS011;16507;51.046;6.406;2022-09-03T09:39:38;3.05;;;0.60;;
29574;SDS011;16507;51.046;6.406;2022-09-03T09:42:06;6.13;;;1.10;;
29574;SDS011;16507;51.046;6.406;2022-09-03T09:44:40;2.92;;;0.70;;
29574;SDS011;16507;51.046;6.406;2022-09-03T09:47:15;10.95;;;1.08;;
29574;SDS011;16507;51.046;6.406;2022-09-03T09:49:54;2.55;;;1.13;;
29574;SDS011;16507;51.046;6.406;2022-09-03T09:52:22;19.33;;;1.63;;
29574;SDS011;16507;51.046;6.406;2022-09-03T09:54:50;10.48;;;0.77;;
29574;SDS011;16507;51.046;6.406;2022-09-03T09:57:23;1.73;;;0.80;;
29574;SDS011;16507;51.046;6.406;2022-09-03T10:00:00;2.03;;;0.68;;
29574;SDS011;16507;51.046;6.406;2022-09-03T10:02:33;6.00;;;1.25;;
29574;SDS011;16507;51.046;6.406;2022-09-03T10:05:10;6.15;;;1.17;;
29574;SDS011;16507;51.046;6.406;2022-09-03T10:07:38;1.05;;;0.90;;
29574;SDS011;16507;51.046;6.406;2022-09-03T10:10:06;7.82;;;0.93;;
29574;SDS011;16507;51.046;6.406;2022-09-03T10:12:38;5.00;;;1.00;;
29574;SDS011;16507;51.046;6.406;2022-09-03T10:25:39;1.60;;;0.70;;
29574;SDS011;16507;51.046;6.406;2022-09-03T10:28:17;1.70;;;0.90;;
29574;SDS011;16507;51.046;6.406;2022-09-03T10:33:41;1.38;;;1.02;;
29574;SDS011;16507;51.046;6.406;2022-09-03T10:36:18;17.95;;;1.33;;
29574;SDS011;16507;51.046;6.406;2022-09-03T10:39:37;5.88;;;0.82;;
29574;SDS011;16507;51.046;6.406;2022-09-03T10:44:29;1.40;;;1.20;;
29574;SDS011;16507;51.046;6.406;2022-09-03T10:47:25;4.22;;;1.20;;
29574;SDS011;16507;51.046;6.406;2022-09-03T11:00:51;1.52;;;1.20;;
29574;SDS011;16507;51.046;6.406;2022-09-03T11:09:11;3.67;;;1.00;;
29574;SDS011;16507;51.046;6.406;2022-09-03T11:11:50;2.10;;;1.08;;
29574;SDS011;16507;51.046;6.406;2022-09-03T11:14:25;1.15;;;1.02;;
29574;SDS011;16507;51.046;6.406;2022-09-03T11:17:05;1.80;;;1.02;;
29574;SDS011;16507;51.046;6.406;2022-09-03T11:19:41;7.63;;;1.50;;
29574;SDS011;16507;51.046;6.406;2022-09-03T11:22:14;2.88;;;1.02;;
29574;SDS011;16507;51.046;6.406;2022-09-03T11:24:42;7.85;;;0.88;;
29574;SDS011;16507;51.046;6.406;2022-09-03T11:32:31;12.70;;;1.00;;
29574;SDS011;16507;51.046;6.406;2022-09-03T11:35:22;13.85;;;1.17;;
29574;SDS011;16507;51.046;6.406;2022-09-03T11:38:04;8.05;;;1.05;;
29574;SDS011;16507;51.046;6.406;2022-09-03T11:40:42;3.90;;;1.00;;
29574;SDS011;16507;51.046;6.406;2022-09-03T11:43:50;14.15;;;1.13;;
29574;SDS011;16507;51.046;6.406;2022-09-03T11:51:29;4.93;;;1.00;;
29574;SDS011;16507;51.046;6.406;2022-09-03T11:56:48;2.15;;;1.10;;
29574;SDS011;16507;51.046;6.406;2022-09-03T11:59:21;2.88;;;1.23;;
29574;SDS011;16507;51.046;6.406;2022-09-03T12:09:57;1.63;;;0.93;;
29574;SDS011;16507;51.046;6.406;2022-09-03T12:15:10;6.13;;;1.52;;
29574;SDS011;16507;51.046;6.406;2022-09-03T12:20:38;11.07;;;2.08;;
29574;SDS011;16507;51.046;6.406;2022-09-03T12:23:05;4.07;;;1.42;;
29574;SDS011;16507;51.046;6.406;2022-09-03T12:25:31;1.38;;;1.27;;
29574;SDS011;16507;51.046;6.406;2022-09-03T12:27:58;13.00;;;1.20;;
29574;SDS011;16507;51.046;6.406;2022-09-03T12:30:29;11.13;;;1.38;;
29574;SDS011;16507;51.046;6.406;2022-09-03T12:33:05;3.50;;;1.02;;
29574;SDS011;16507;51.046;6.406;2022-09-03T12:35:31;35.45;;;2.85;;
29574;SDS011;16507;51.046;6.406;2022-09-03T12:37:57;2.88;;;1.23;;
29574;SDS011;16507;51.046;6.406;2022-09-03T12:40:27;5.30;;;1.30;;
29574;SDS011;16507;51.046;6.406;2022-09-03T12:42:54;9.23;;;1.33;;
29574;SDS011;16507;51.046;6.406;2022-09-03T12:45:40;4.43;;;1.00;;
29574;SDS011;16507;51.046;6.406;2022-09-03T12:48:13;5.13;;;1.30;;
29574;SDS011;16507;51.046;6.406;2022-09-03T12:50:42;2.22;;;1.15;;
29574;SDS011;16507;51.046;6.406;2022-09-03T12:53:10;2.15;;;0.90;;
29574;SDS011;16507;51.046;6.406;2022-09-03T13:06:20;4.60;;;1.52;;
29574;SDS011;16507;51.046;6.406;2022-09-03T13:08:59;1.45;;;0.90;;
29574;SDS011;16507;51.046;6.406;2022-09-03T13:11:27;3.60;;;1.20;;
29574;SDS011;16507;51.046;6.406;2022-09-03T13:24:57;5.95;;;1.65;;
29574;SDS011;16507;51.046;6.406;2022-09-03T13:30:04;3.05;;;0.95;;
29574;SDS011;16507;51.046;6.406;2022-09-03T13:33:21;1.70;;;1.00;;
29574;SDS011;16507;51.046;6.406;2022-09-03T13:41:08;0.90;;;0.90;;
29574;SDS011;16507;51.046;6.406;2022-09-03T13:46:58;1.88;;;1.30;;
29574;SDS011;16507;51.046;6.406;2022-09-03T13:52:55;4.78;;;1.23;;
29574;SDS011;16507;51.046;6.406;2022-09-03T14:00:51;5.13;;;1.25;;
29574;SDS011;16507;51.046;6.406;2022-09-03T14:11:22;12.23;;;1.50;;
29574;SDS011;16507;51.046;6.406;2022-09-03T14:17:18;10.45;;;1.58;;
29574;SDS011;16507;51.046;6.406;2022-09-03T14:20:08;8.00;;;1.58;;
29574;SDS011;16507;51.046;6.406;2022-09-03T14:25:25;2.42;;;1.17;;
29574;SDS011;16507;51.046;6.406;2022-09-03T14:27:52;1.10;;;1.00;;
29574;SDS011;16507;51.046;6.406;2022-09-03T14:38:44;5.05;;;1.20;;
29574;SDS011;16507;51.046;6.406;2022-09-03T14:41:31;2.38;;;1.17;;
29574;SDS011;16507;51.046;6.406;2022-09-03T14:44:20;1.45;;;1.25;;
29574;SDS011;16507;51.046;6.406;2022-09-03T14:47:09;1.73;;;1.38;;
29574;SDS011;16507;51.046;6.406;2022-09-03T14:50:10;6.03;;;1.55;;
29574;SDS011;16507;51.046;6.406;2022-09-03T15:01:28;1.52;;;1.40;;
29574;SDS011;16507;51.046;6.406;2022-09-03T15:06:46;5.82;;;1.42;;
29574;SDS011;16507;51.046;6.406;2022-09-03T15:09:51;1.50;;;1.17;;
29574;SDS011;16507;51.046;6.406;2022-09-03T15:12:39;13.20;;;1.50;;
29574;SDS011;16507;51.046;6.406;2022-09-03T15:15:31;12.98;;;1.90;;
29574;SDS011;16507;51.046;6.406;2022-09-03T15:20:57;6.20;;;1.52;;
29574;SDS011;16507;51.046;6.406;2022-09-03T15:26:33;6.70;;;1.60;;
29574;SDS011;16507;51.046;6.406;2022-09-03T15:29:29;3.15;;;1.13;;
29574;SDS011;16507;51.046;6.406;2022-09-03T15:35:01;2.65;;;1.60;;
29574;SDS011;16507;51.046;6.406;2022-09-03T15:37:47;1.98;;;1.50;;
29574;SDS011;16507;51.046;6.406;2022-09-03T15:40:26;2.03;;;1.48;;
29574;SDS011;16507;51.046;6.406;2022-09-03T15:48:33;4.65;;;1.40;;
29574;SDS011;16507;51.046;6.406;2022-09-03T15:51:19;6.45;;;1.80;;
29574;SDS011;16507;51.046;6.406;2022-09-03T15:57:03;11.75;;;1.65;;
29574;SDS011;16507;51.046;6.406;2022-09-03T16:02:31;8.30;;;1.50;;
29574;SDS011;16507;51.046;6.406;2022-09-03T16:05:06;2.58;;;1.33;;
29574;SDS011;16507;51.046;6.406;2022-09-03T16:10:16;7.57;;;1.73;;
29574;SDS011;16507;51.046;6.406;2022-09-03T16:16:04;10.35;;;2.45;;
29574;SDS011;16507;51.046;6.406;2022-09-03T16:18:41;2.75;;;1.27;;
29574;SDS011;16507;51.046;6.406;2022-09-03T16:21:14;1.10;;;1.10;;
29574;SDS011;16507;51.046;6.406;2022-09-03T16:23:54;1.27;;;1.17;;
29574;SDS011;16507;51.046;6.406;2022-09-03T16:26:41;2.63;;;1.25;;
29574;SDS011;16507;51.046;6.406;2022-09-03T16:29:31;3.42;;;1.20;;
29574;SDS011;16507;51.046;6.406;2022-09-03T16:32:10;4.70;;;1.13;;
29574;SDS011;16507;51.046;6.406;2022-09-03T16:46:24;1.15;;;1.05;;
29574;SDS011;16507;51.046;6.406;2022-09-03T16:55:20;3.03;;;1.20;;
29574;SDS011;16507;51.046;6.406;2022-09-03T16:58:09;13.05;;;1.60;;
29574;SDS011;16507;51.046;6.406;2022-09-03T17:04:02;3.40;;;1.23;;
29574;SDS011;16507;51.046;6.406;2022-09-03T17:12:37;1.02;;;0.95;;
29574;SDS011;16507;51.046;6.406;2022-09-03T17:15:40;4.72;;;1.08;;
29574;SDS011;16507;51.046;6.406;2022-09-03T17:29:01;2.80;;;1.17;;
29574;SDS011;16507;51.046;6.406;2022-09-03T17:31:49;6.55;;;1.48;;
29574;SDS011;16507;51.046;6.406;2022-09-03T17:45:15;1.02;;;1.02;;
29574;SDS011;16507;51.046;6.406;2022-09-03T17:53:52;18.55;;;2.08;;
29574;SDS011;16507;51.046;6.406;2022-09-03T17:56:28;2.63;;;1.40;;
29574;SDS011;16507;51.046;6.406;2022-09-03T18:02:48;1.73;;;1.10;;
29574;SDS011;16507;51.046;6.406;2022-09-03T18:04:41;1.58;;;1.48;;
29574;SDS011;16507;51.046;6.406;2022-09-03T18:07:10;16.45;;;1.67;;
29574;SDS011;16507;51.046;6.406;2022-09-03T18:09:48;2.58;;;1.20;;
29574;SDS011;16507;51.046;6.406;2022-09-03T18:17:50;7.38;;;1.30;;
29574;SDS011;16507;51.046;6.406;2022-09-03T18:20:17;6.10;;;1.48;;
29574;SDS011;16507;51.046;6.406;2022-09-03T18:23:06;1.40;;;1.30;;
29574;SDS011;16507;51.046;6.406;2022-09-03T18:25:53;26.15;;;2.47;;
29574;SDS011;16507;51.046;6.406;2022-09-03T18:29:02;21.83;;;1.85;;
29574;SDS011;16507;51.046;6.406;2022-09-03T18:31:53;17.60;;;1.83;;
29574;SDS011;16507;51.046;6.406;2022-09-03T18:34:37;16.38;;;1.95;;
29574;SDS011;16507;51.046;6.406;2022-09-03T18:37:23;2.00;;;1.10;;
29574;SDS011;16507;51.046;6.406;2022-09-03T18:40:09;4.95;;;1.13;;
29574;SDS011;16507;51.046;6.406;2022-09-03T18:46:28;5.47;;;1.20;;
29574;SDS011;16507;51.046;6.406;2022-09-03T19:01:42;1.75;;;1.20;;
29574;SDS011;16507;51.046;6.406;2022-09-03T19:11:04;3.72;;;1.30;;
29574;SDS011;16507;51.046;6.406;2022-09-03T19:14:24;3.45;;;1.20;;
29574;SDS011;16507;51.046;6.406;2022-09-03T19:17:20;1.20;;;1.10;;
29574;SDS011;16507;51.046;6.406;2022-09-03T19:20:10;1.50;;;1.40;;
29574;SDS011;16507;51.046;6.406;2022-09-03T19:23:02;7.68;;;1.52;;
29574;SDS011;16507;51.046;6.406;2022-09-03T19:25:46;1.30;;;1.20;;
29574;SDS011;16507;51.046;6.406;2022-09-03T19:28:30;2.38;;;1.25;;
29574;SDS011;16507;51.046;6.406;2022-09-03T19:40:32;3.28;;;1.08;;
29574;SDS011;16507;51.046;6.406;2022-09-03T19:43:56;1.90;;;1.17;;
29574;SDS011;16507;51.046;6.406;2022-09-03T19:46:56;2.47;;;1.50;;
29574;SDS011;16507;51.046;6.406;2022-09-03T19:53:04;1.40;;;1.20;;
29574;SDS011;16507;51.046;6.406;2022-09-03T19:55:57;1.10;;;1.10;;
29574;SDS011;16507;51.046;6.406;2022-09-03T19:58:48;10.75;;;1.88;;
29574;SDS011;16507;51.046;6.406;2022-09-03T20:01:37;4.57;;;1.70;;
29574;SDS011;16507;51.046;6.406;2022-09-03T20:04:33;3.25;;;1.55;;
29574;SDS011;16507;51.046;6.406;2022-09-03T20:07:25;1.58;;;1.20;;
29574;SDS011;16507;51.046;6.406;2022-09-03T20:10:11;1.63;;;1.52;;
29574;SDS011;16507;51.046;6.406;2022-09-03T20:21:20;1.58;;;1.48;;
29574;SDS011;16507;51.046;6.406;2022-09-03T20:29:46;2.55;;;1.73;;
29574;SDS011;16507;51.046;6.406;2022-09-03T20:51:55;2.90;;;1.95;;
29574;SDS011;16507;51.046;6.406;2022-09-03T20:57:45;32.22;;;3.38;;
29574;SDS011;16507;51.046;6.406;2022-09-03T21:00:26;2.13;;;1.80;;
29574;SDS011;16507;51.046;6.406;2022-09-03T21:03:24;2.38;;;2.20;;
29574;SDS011;16507;51.046;6.406;2022-09-03T21:06:05;4.75;;;2.25;;
29574;SDS011;16507;51.046;6.406;2022-09-03T21:11:22;3.22;;;2.35;;
29574;SDS011;16507;51.046;6.406;2022-09-03T21:24:55;9.13;;;2.50;;
29574;SDS011;16507;51.046;6.406;2022-09-03T21:27:30;3.03;;;2.83;;
29574;SDS011;16507;51.046;6.406;2022-09-03T21:30:13;5.22;;;2.70;;
29574;SDS011;16507;51.046;6.406;2022-09-03T21:32:43;3.25;;;2.80;;
29574;SDS011;16507;51.046;6.406;2022-09-03T21:38:27;6.90;;;2.90;;
29574;SDS011;16507;51.046;6.406;2022-09-03T21:41:05;3.22;;;2.47;;
29574;SDS011;16507;51.046;6.406;2022-09-03T21:46:12;2.70;;;2.50;;
29574;SDS011;16507;51.046;6.406;2022-09-03T21:48:45;3.67;;;2.95;;
29574;SDS011;16507;51.046;6.406;2022-09-03T21:51:29;8.97;;;3.47;;
29574;SDS011;16507;51.046;6.406;2022-09-03T21:54:00;4.40;;;3.00;;
29574;SDS011;16507;51.046;6.406;2022-09-03T22:02:26;17.33;;;3.40;;
29574;SDS011;16507;51.046;6.406;2022-09-03T22:04:53;7.25;;;2.75;;
29574;SDS011;16507;51.046;6.406;2022-09-03T22:12:53;3.10;;;2.90;;
29574;SDS011;16507;51.046;6.406;2022-09-03T22:15:23;7.00;;;3.20;;
29574;SDS011;16507;51.046;6.406;2022-09-03T22:17:59;17.00;;;3.75;;